createdAt,value
2019-01-11T00:00:36.230Z,-2.90
2019-01-11T00:03:05.277Z,-3.00
2019-01-11T00:05:34.381Z,-3.00
2019-01-11T00:08:03.425Z,-2.90
2019-01-11T00:10:32.537Z,-3.00
2019-01-11T00:13:01.580Z,-3.00
2019-01-11T00:15:31.396Z,-3.00
2019-01-11T00:18:00.458Z,-3.10
2019-01-11T00:20:29.550Z,-3.20
2019-01-11T00:22:58.594Z,-3.40
2019-01-11T00:25:27.722Z,-3.50
2019-01-11T00:27:56.664Z,-3.60
2019-01-11T00:30:25.657Z,-3.70
2019-01-11T00:32:54.592Z,-3.70
2019-01-11T00:35:23.676Z,-3.70
2019-01-11T00:37:52.710Z,-3.70
2019-01-11T00:40:21.855Z,-3.70
2019-01-11T00:42:50.902Z,-3.70
2019-01-11T00:45:19.821Z,-3.80
2019-01-11T00:47:48.846Z,-3.80
2019-01-11T00:50:18.004Z,-3.80
2019-01-11T00:52:47.077Z,-3.80
2019-01-11T00:55:16.139Z,-3.90
2019-01-11T00:57:45.233Z,-3.90
2019-01-11T01:00:20.760Z,-4.00
2019-01-11T01:02:49.771Z,-4.00
2019-01-11T01:05:18.902Z,-4.10
2019-01-11T01:07:48.020Z,-4.20
2019-01-11T01:10:18.172Z,-4.20
2019-01-11T01:12:47.273Z,-4.20
2019-01-11T01:15:16.546Z,-4.30
2019-01-11T01:17:45.543Z,-4.40
2019-01-11T01:20:16.390Z,-4.40
2019-01-11T01:22:45.511Z,-4.40
2019-01-11T01:25:14.642Z,-4.50
2019-01-11T01:27:43.768Z,-4.60
2019-01-11T01:30:15.961Z,-4.60
2019-01-11T01:32:44.955Z,-4.40
2019-01-11T01:35:13.927Z,-4.30
2019-01-11T01:37:42.996Z,-4.20
2019-01-11T01:40:15.144Z,-4.10
2019-01-11T01:42:44.142Z,-4.10
2019-01-11T01:45:18.325Z,-4.10
2019-01-11T01:47:47.430Z,-3.90
2019-01-11T01:50:16.446Z,-3.90
2019-01-11T01:52:45.543Z,-3.80
2019-01-11T01:55:15.285Z,-3.70
2019-01-11T01:57:44.387Z,-3.60
2019-01-11T02:00:18.923Z,-3.60
2019-01-11T02:02:47.928Z,-3.60
2019-01-11T02:05:16.970Z,-3.60
2019-01-11T02:07:46.053Z,-3.50
2019-01-11T02:10:15.449Z,-3.50
2019-01-11T02:12:44.487Z,-3.60
2019-01-11T02:15:13.685Z,-3.60
2019-01-11T02:17:42.723Z,-3.70
2019-01-11T02:20:16.658Z,-3.70
2019-01-11T02:22:45.720Z,-3.80
2019-01-11T02:25:14.924Z,-3.80
2019-01-11T02:27:43.982Z,-3.80
2019-01-11T02:30:18.579Z,-3.80
2019-01-11T02:32:52.431Z,-3.60
2019-01-11T02:35:18.274Z,-3.50
2019-01-11T02:37:47.300Z,-3.40
2019-01-11T02:40:16.520Z,-3.30
2019-01-11T02:42:45.580Z,-3.20
2019-01-11T02:45:17.077Z,-3.20
2019-01-11T02:47:46.028Z,-3.20
2019-01-11T02:50:15.738Z,-3.20
2019-01-11T02:52:44.772Z,-3.20
2019-01-11T02:55:13.797Z,-3.20
2019-01-11T02:57:42.852Z,-3.20
2019-01-11T03:00:19.745Z,-3.10
2019-01-11T03:02:48.777Z,-3.10
2019-01-11T03:05:17.968Z,-3.10
2019-01-11T03:07:47.146Z,-3.10
2019-01-11T03:10:20.646Z,-3.00
2019-01-11T03:12:49.680Z,-3.00
2019-01-11T03:15:18.977Z,-3.00
2019-01-11T03:17:48.052Z,-2.90
2019-01-11T03:20:18.051Z,-2.90
2019-01-11T03:22:47.082Z,-2.80
2019-01-11T03:25:16.849Z,-2.80
2019-01-11T03:27:45.905Z,-2.80
2019-01-11T03:30:16.945Z,-2.80
2019-01-11T03:32:46.064Z,-2.80
2019-01-11T03:35:18.766Z,-2.80
2019-01-11T03:37:48.885Z,-2.80
2019-01-11T03:40:22.216Z,-2.80
2019-01-11T03:42:51.330Z,-2.80
2019-01-11T03:45:21.682Z,-2.70
2019-01-11T03:47:50.833Z,-2.70
2019-01-11T03:50:20.249Z,-2.70
2019-01-11T03:52:49.376Z,-2.60
2019-01-11T03:55:21.590Z,-2.60
2019-01-11T03:57:50.690Z,-2.60
2019-01-11T04:00:23.113Z,-2.60
2019-01-11T04:02:52.243Z,-2.60
2019-01-11T04:05:21.293Z,-2.60
2019-01-11T04:07:50.508Z,-2.50
2019-01-11T04:10:21.043Z,-2.60
2019-01-11T04:12:50.129Z,-2.60
2019-01-11T04:15:20.470Z,-2.60
2019-01-11T04:17:51.499Z,-2.70
2019-01-11T04:20:20.530Z,-2.80
2019-01-11T04:22:51.118Z,-2.90
2019-01-11T04:25:21.733Z,-3.00
2019-01-11T04:27:51.442Z,-3.00
2019-01-11T04:30:20.573Z,-3.00
2019-01-11T04:32:49.689Z,-3.00
2019-01-11T04:35:18.718Z,-3.10
2019-01-11T04:37:47.835Z,-3.10
2019-01-11T04:40:16.969Z,-3.10
2019-01-11T04:42:45.910Z,-3.10
2019-01-11T04:45:14.910Z,-3.00
2019-01-11T04:47:43.948Z,-3.00
2019-01-11T04:50:15.562Z,-2.90
2019-01-11T04:52:46.144Z,-2.90
2019-01-11T04:55:15.415Z,-2.90
2019-01-11T04:57:44.434Z,-2.90
2019-01-11T05:00:21.033Z,-2.80
2019-01-11T05:02:49.967Z,-2.80
2019-01-11T05:05:19.071Z,-2.90
2019-01-11T05:07:48.109Z,-2.90
2019-01-11T05:10:18.744Z,-2.80
2019-01-11T05:12:47.762Z,-2.80
2019-01-11T05:15:16.767Z,-2.80
2019-01-11T05:17:45.807Z,-2.70
2019-01-11T05:20:17.198Z,-2.70
2019-01-11T05:22:46.467Z,-2.70
2019-01-11T05:25:15.588Z,-2.70
2019-01-11T05:27:44.625Z,-2.70
2019-01-11T05:30:16.042Z,-2.70
2019-01-11T05:32:45.295Z,-2.70
2019-01-11T05:35:14.470Z,-2.70
2019-01-11T05:37:44.572Z,-2.70
2019-01-11T05:40:16.116Z,-2.60
2019-01-11T05:42:45.131Z,-2.60
2019-01-11T05:45:14.140Z,-2.60
2019-01-11T05:47:43.451Z,-2.60
2019-01-11T05:50:15.546Z,-2.60
2019-01-11T05:52:44.485Z,-2.60
2019-01-11T05:55:15.067Z,-2.60
2019-01-11T05:57:45.580Z,-2.60
2019-01-11T06:00:14.720Z,-2.60
2019-01-11T06:02:43.767Z,-2.60
2019-01-11T06:05:12.854Z,-2.60
2019-01-11T06:07:43.359Z,-2.50
2019-01-11T06:10:14.598Z,-2.60
2019-01-11T06:12:43.636Z,-2.60
2019-01-11T06:15:12.696Z,-2.50
2019-01-11T06:17:41.796Z,-2.50
2019-01-11T06:20:13.644Z,-2.50
2019-01-11T06:22:42.727Z,-2.50
2019-01-11T06:25:11.662Z,-2.50
2019-01-11T06:27:44.166Z,-2.50
2019-01-11T06:30:14.681Z,-2.40
2019-01-11T06:32:44.670Z,-2.30
2019-01-11T06:35:13.755Z,-2.30
2019-01-11T06:37:42.832Z,-2.30
2019-01-11T06:40:12.354Z,-2.40
2019-01-11T06:42:41.463Z,-2.30
2019-01-11T06:45:11.297Z,-2.40
2019-01-11T06:47:40.457Z,-2.40
2019-01-11T06:50:15.106Z,-2.40
2019-01-11T06:52:44.100Z,-2.40
2019-01-11T06:55:13.139Z,-2.30
2019-01-11T06:57:42.129Z,-2.30
2019-01-11T07:00:16.316Z,-2.30
2019-01-11T07:02:45.423Z,-2.30
2019-01-11T07:05:14.482Z,-2.30
2019-01-11T07:07:43.851Z,-2.30
2019-01-11T07:10:23.331Z,-2.30
2019-01-11T07:12:52.320Z,-2.20
2019-01-11T07:15:21.257Z,-2.20
2019-01-11T07:17:50.344Z,-2.20
2019-01-11T07:20:20.611Z,-2.20
2019-01-11T07:22:49.710Z,-2.20
2019-01-11T07:25:18.626Z,-2.20
2019-01-11T07:27:49.203Z,-2.20
2019-01-11T07:30:18.239Z,-2.20
2019-01-11T07:32:47.442Z,-2.20
2019-01-11T07:35:16.369Z,-2.10
2019-01-11T07:37:45.442Z,-2.10
2019-01-11T07:40:14.561Z,-2.10
2019-01-11T07:42:43.484Z,-2.10
2019-01-11T07:45:13.680Z,-2.10
2019-01-11T07:47:42.634Z,-2.10
2019-01-11T07:50:11.743Z,-2.10
2019-01-11T07:52:40.679Z,-2.10
2019-01-11T07:55:10.385Z,-2.00
2019-01-11T07:57:39.436Z,-1.90
2019-01-11T08:00:12.244Z,-1.90
2019-01-11T08:02:43.053Z,-1.80
2019-01-11T08:05:12.231Z,-1.90
2019-01-11T08:07:41.252Z,-1.80
2019-01-11T08:10:11.956Z,-1.70
2019-01-11T08:12:41.032Z,-1.60
2019-01-11T08:15:13.014Z,-1.60
2019-01-11T08:17:42.052Z,-1.50
2019-01-11T08:20:11.261Z,-1.40
2019-01-11T08:22:41.299Z,-1.30
2019-01-11T08:25:11.592Z,-1.20
2019-01-11T08:27:40.657Z,-1.20
2019-01-11T08:30:16.619Z,-1.10
2019-01-11T08:32:45.890Z,-1.20
2019-01-11T08:35:15.497Z,-1.10
2019-01-11T08:37:44.539Z,-1.10
2019-01-11T08:40:13.779Z,-1.00
2019-01-11T08:42:42.717Z,-1.10
2019-01-11T08:45:13.885Z,-1.00
2019-01-11T08:47:42.823Z,-1.00
2019-01-11T08:50:20.030Z,-1.00
2019-01-11T08:52:49.082Z,-1.00
2019-01-11T08:55:18.192Z,-1.10
2019-01-11T08:57:47.235Z,-1.10
2019-01-11T09:00:17.041Z,-1.10
2019-01-11T09:02:46.088Z,-1.30
2019-01-11T09:05:15.140Z,-1.30
2019-01-11T09:07:44.254Z,-1.30
2019-01-11T09:10:22.357Z,-1.30
2019-01-11T09:12:46.424Z,-1.20
2019-01-11T09:15:15.484Z,-1.30
2019-01-11T09:17:54.856Z,-1.20
2019-01-11T09:20:23.786Z,-1.20
2019-01-11T09:22:52.891Z,-1.20
2019-01-11T09:25:22.035Z,-1.10
2019-01-11T09:27:51.131Z,-1.10
2019-01-11T09:30:20.214Z,-1.00
2019-01-11T09:32:49.217Z,-0.90
2019-01-11T09:35:18.162Z,-0.80
2019-01-11T09:37:47.285Z,-0.80
2019-01-11T09:40:16.376Z,-0.70
2019-01-11T09:42:45.485Z,-0.50
2019-01-11T09:45:14.426Z,-0.50
2019-01-11T09:47:43.531Z,-0.40
2019-01-11T09:50:12.578Z,-0.30
2019-01-11T09:52:41.691Z,-0.30
2019-01-11T09:55:10.628Z,-0.20
2019-01-11T09:57:39.759Z,-0.10
2019-01-11T10:00:11.901Z,0.00
2019-01-11T10:02:41.244Z,-0.10
2019-01-11T10:05:10.641Z,-0.10
2019-01-11T10:07:39.675Z,-0.10
2019-01-11T10:10:11.408Z,-0.20
2019-01-11T10:12:40.522Z,-0.30
2019-01-11T10:15:11.485Z,-0.30
2019-01-11T10:17:40.502Z,-0.50
2019-01-11T10:20:11.867Z,-0.50
2019-01-11T10:22:41.374Z,-0.50
2019-01-11T10:25:13.385Z,-0.50
2019-01-11T10:27:48.178Z,-0.40
2019-01-11T10:30:22.616Z,-0.50
2019-01-11T10:32:51.715Z,-0.50
2019-01-11T10:35:20.650Z,-0.50
2019-01-11T10:37:49.690Z,-0.40
2019-01-11T10:40:18.996Z,-0.40
2019-01-11T10:42:48.094Z,-0.50
2019-01-11T10:45:18.986Z,-0.40
2019-01-11T10:47:48.010Z,-0.40
2019-01-11T10:50:18.126Z,-0.40
2019-01-11T10:52:47.179Z,-0.40
2019-01-11T10:55:17.153Z,-0.30
2019-01-11T10:57:47.003Z,-0.30
2019-01-11T11:00:18.879Z,-0.20
2019-01-11T11:02:47.922Z,-0.10
2019-01-11T11:05:16.932Z,-0.20
2019-01-11T11:07:46.073Z,-0.10
2019-01-11T11:10:15.497Z,-0.10
2019-01-11T11:12:44.530Z,-0.20
2019-01-11T11:15:15.725Z,-0.20
2019-01-11T11:17:45.291Z,-0.20
2019-01-11T11:20:18.188Z,-0.10
2019-01-11T11:22:47.303Z,0.00
2019-01-11T11:25:20.472Z,0.00
2019-01-11T11:27:49.404Z,0.10
2019-01-11T11:30:19.303Z,0.10
2019-01-11T11:32:55.402Z,0.10
2019-01-11T11:35:24.703Z,0.20
2019-01-11T11:37:53.946Z,0.10
2019-01-11T11:40:23.447Z,0.20
2019-01-11T11:42:52.480Z,0.20
2019-01-11T11:45:21.579Z,0.10
2019-01-11T11:47:50.639Z,0.10
2019-01-11T11:50:19.732Z,0.20
2019-01-11T11:52:48.770Z,0.30
2019-01-11T11:55:17.863Z,0.30
2019-01-11T11:57:46.794Z,0.30
2019-01-11T12:00:20.807Z,0.40
2019-01-11T12:02:49.836Z,0.50
2019-01-11T12:05:18.843Z,0.60
2019-01-11T12:07:47.886Z,0.70
2019-01-11T12:10:17.026Z,0.70
2019-01-11T12:12:46.126Z,0.80
2019-01-11T12:15:15.763Z,0.80
2019-01-11T12:17:44.885Z,0.60
2019-01-11T12:20:17.064Z,0.60
2019-01-11T12:22:46.078Z,0.60
2019-01-11T12:25:15.013Z,0.50
2019-01-11T12:27:44.133Z,0.50
2019-01-11T12:30:15.278Z,0.50
2019-01-11T12:32:44.373Z,0.50
2019-01-11T12:35:14.553Z,0.60
2019-01-11T12:37:43.706Z,0.60
2019-01-11T12:40:17.041Z,0.80
2019-01-11T12:42:46.161Z,0.80
2019-01-11T12:48:07.393Z,0.60
2019-01-11T12:50:36.416Z,0.50
2019-01-11T12:53:05.502Z,0.50
2019-01-11T12:55:37.216Z,0.60
2019-01-11T12:58:09.309Z,0.60
2019-01-11T13:00:38.349Z,0.60
2019-01-11T13:03:07.443Z,0.50
2019-01-11T13:05:36.516Z,0.50
2019-01-11T13:08:05.615Z,0.50
2019-01-11T13:10:34.678Z,0.40
2019-01-11T13:13:03.782Z,0.30
2019-01-11T13:15:32.865Z,0.20
2019-01-11T13:18:01.978Z,0.10
2019-01-11T13:20:31.021Z,0.00
2019-01-11T13:23:00.135Z,-0.10
2019-01-11T13:25:32.240Z,-0.20
2019-01-11T13:27:59.828Z,-0.20
2019-01-11T13:30:28.888Z,-0.20
2019-01-11T13:32:57.900Z,-0.20
2019-01-11T13:35:27.040Z,-0.20
2019-01-11T13:37:56.259Z,-0.10
2019-01-11T13:40:28.379Z,-0.20
2019-01-11T13:42:57.410Z,-0.10
2019-01-11T13:45:26.564Z,-0.30
2019-01-11T13:47:55.588Z,-0.30
2019-01-11T13:50:32.437Z,-0.40
2019-01-11T13:53:01.475Z,-0.40
2019-01-11T13:55:30.516Z,-0.30
2019-01-11T13:57:59.559Z,-0.30
2019-01-11T14:00:28.669Z,-0.20
2019-01-11T14:02:57.729Z,-0.20
2019-01-11T14:05:26.922Z,-0.20
2019-01-11T14:07:55.960Z,-0.20
2019-01-11T14:10:25.074Z,-0.20
2019-01-11T14:12:54.103Z,-0.20
2019-01-11T14:15:23.220Z,-0.20
2019-01-11T14:17:52.167Z,-0.30
2019-01-11T14:20:21.266Z,-0.30
2019-01-11T14:22:50.235Z,-0.30
2019-01-11T14:25:19.304Z,-0.30
2019-01-11T14:27:48.576Z,-0.30
2019-01-11T14:30:19.708Z,-0.30
2019-01-11T14:32:48.746Z,-0.30
2019-01-11T14:35:17.855Z,-0.30
2019-01-11T14:37:46.765Z,-0.30
2019-01-11T14:40:16.969Z,-0.40
2019-01-11T14:42:46.018Z,-0.40
2019-01-11T14:45:16.965Z,-0.40
2019-01-11T14:47:46.105Z,-0.40
2019-01-11T14:50:17.593Z,-0.40
2019-01-11T14:52:46.521Z,-0.50
2019-01-11T14:55:15.634Z,-0.50
2019-01-11T14:57:44.703Z,-0.70
2019-01-11T15:00:22.010Z,-0.60
2019-01-11T15:02:51.049Z,-0.70
2019-01-11T15:05:20.665Z,-0.60
2019-01-11T15:07:49.706Z,-0.60
2019-01-11T15:10:18.841Z,-0.60
2019-01-11T15:12:48.606Z,-0.70
2019-01-11T15:15:17.773Z,-0.70
2019-01-11T15:17:46.815Z,-0.60
2019-01-11T15:20:17.068Z,-0.70
2019-01-11T15:22:46.409Z,-0.70
2019-01-11T15:25:15.445Z,-0.70
2019-01-11T15:27:44.555Z,-0.70
2019-01-11T15:30:17.992Z,-0.70
2019-01-11T15:32:47.087Z,-0.80
2019-01-11T15:35:16.148Z,-0.80
2019-01-11T15:37:45.253Z,-0.80
2019-01-11T15:40:27.886Z,-0.90
2019-01-11T15:44:09.380Z,-0.90
2019-01-11T15:45:48.917Z,-0.90
2019-01-11T15:48:18.022Z,-0.90
2019-01-11T15:50:50.344Z,-0.90
2019-01-11T15:53:19.446Z,-0.90
2019-01-11T15:55:48.827Z,-0.90
2019-01-11T15:58:17.902Z,-0.90
2019-01-11T16:00:48.649Z,-0.90
2019-01-11T16:03:17.675Z,-0.90
2019-01-11T16:05:46.722Z,-0.90
2019-01-11T16:08:15.818Z,-0.90
2019-01-11T16:11:19.303Z,-0.90
2019-01-11T16:13:54.228Z,-0.90
2019-01-11T16:16:23.303Z,-0.90
2019-01-11T16:18:52.424Z,-0.90
2019-01-11T16:21:21.467Z,-0.90
2019-01-11T16:23:50.575Z,-0.90
2019-01-11T16:26:19.627Z,-0.90
2019-01-11T16:28:48.829Z,-0.90
2019-01-11T16:31:17.868Z,-0.90
2019-01-11T16:33:46.972Z,-1.00
2019-01-11T16:36:16.050Z,-0.90
2019-01-11T16:38:45.150Z,-0.90
2019-01-11T16:41:14.111Z,-0.90
2019-01-11T16:43:43.262Z,-0.90
2019-01-11T16:46:12.195Z,-0.90
2019-01-11T16:48:41.296Z,-0.80
2019-01-11T16:51:10.440Z,-0.80
2019-01-11T16:53:39.562Z,-0.80
2019-01-11T16:56:08.490Z,-0.80
2019-01-11T16:58:37.430Z,-0.90
2019-01-11T17:01:06.540Z,-0.90
2019-01-11T17:03:35.559Z,-0.90
2019-01-11T17:06:04.743Z,-0.90
2019-01-11T17:08:33.681Z,-0.90
2019-01-11T17:11:02.817Z,-0.90
2019-01-11T17:13:31.749Z,-0.90
2019-01-11T17:16:00.877Z,-0.90
2019-01-11T17:18:29.787Z,-0.90
2019-01-11T17:20:58.790Z,-0.80
2019-01-11T17:23:27.858Z,-0.80
2019-01-11T17:25:56.870Z,-0.80
2019-01-11T17:28:25.816Z,-0.80
2019-01-11T17:30:54.922Z,-0.80
2019-01-11T17:33:23.945Z,-0.70
2019-01-11T17:35:53.063Z,-0.80
2019-01-11T17:38:22.761Z,-0.80
2019-01-11T17:40:51.918Z,-0.70
2019-01-11T17:43:20.850Z,-0.80
2019-01-11T17:45:49.949Z,-0.80
2019-01-11T17:48:18.878Z,-0.70
2019-01-11T17:50:47.881Z,-0.70
2019-01-11T17:53:16.950Z,-0.70
2019-01-11T17:55:46.051Z,-0.70
2019-01-11T17:58:14.975Z,-0.80
2019-01-11T18:00:44.189Z,-0.80
2019-01-11T18:03:13.134Z,-0.90
2019-01-11T18:05:42.281Z,-0.70
2019-01-11T18:08:11.308Z,-0.60
2019-01-11T18:10:40.255Z,-0.60
2019-01-11T18:13:09.252Z,-0.60
2019-01-11T18:15:38.291Z,-0.40
2019-01-11T18:18:07.307Z,-0.40
2019-01-11T18:20:36.355Z,-0.40
2019-01-11T18:23:07.010Z,-0.40
2019-01-11T18:25:35.946Z,-0.40
2019-01-11T18:28:06.097Z,-0.40
2019-01-11T18:30:35.026Z,-0.30
2019-01-11T18:33:04.126Z,-0.30
2019-01-11T18:35:33.071Z,-0.30
2019-01-11T18:38:02.087Z,-0.40
2019-01-11T18:40:31.139Z,-0.40
2019-01-11T18:43:00.120Z,-0.40
2019-01-11T18:45:29.116Z,-0.30
2019-01-11T18:47:58.257Z,-0.30
2019-01-11T18:50:27.287Z,-0.30
2019-01-11T18:53:13.611Z,-0.20
2019-01-11T18:55:40.320Z,-0.30
2019-01-11T18:58:09.424Z,-0.30
2019-01-11T19:00:38.377Z,-0.40
2019-01-11T19:03:10.248Z,-0.30
2019-01-11T19:05:39.286Z,-0.40
2019-01-11T19:08:08.378Z,-0.30
2019-01-11T19:10:37.317Z,-0.30
2019-01-11T19:13:06.322Z,-0.30
2019-01-11T19:15:35.272Z,-0.30
2019-01-11T19:18:04.213Z,-0.30
2019-01-11T19:20:33.305Z,-0.30
2019-01-11T19:23:02.250Z,-0.30
2019-01-11T19:25:31.240Z,-0.30
2019-01-11T19:28:00.191Z,-0.30
2019-01-11T19:30:29.305Z,-0.30
2019-01-11T19:32:58.244Z,-0.30
2019-01-11T19:35:27.388Z,-0.30
2019-01-11T19:37:56.379Z,-0.20
2019-01-11T19:40:25.491Z,-0.20
2019-01-11T19:42:54.431Z,-0.30
2019-01-11T19:45:23.525Z,-0.20
2019-01-11T19:47:52.466Z,-0.30
2019-01-11T19:50:22.962Z,-0.30
2019-01-11T19:52:51.996Z,-0.30
2019-01-11T19:55:21.193Z,-0.20
2019-01-11T19:57:50.242Z,-0.30
2019-01-11T20:00:22.437Z,-0.30
2019-01-11T20:02:51.365Z,-0.20
2019-01-11T20:05:20.369Z,-0.30
2019-01-11T20:07:49.471Z,-0.30
2019-01-11T20:10:24.053Z,-0.20
2019-01-11T20:12:52.999Z,-0.20
2019-01-11T20:15:21.984Z,-0.20
2019-01-11T20:17:51.046Z,-0.30
2019-01-11T20:20:20.043Z,-0.30
2019-01-11T20:22:48.963Z,-0.30
2019-01-11T20:25:20.637Z,-0.30
2019-01-11T20:27:49.570Z,-0.20
2019-01-11T20:30:20.671Z,-0.30
2019-01-11T20:32:49.707Z,-0.20
2019-01-11T20:35:18.735Z,-0.20
2019-01-11T20:37:47.777Z,-0.20
2019-01-11T20:40:17.513Z,-0.10
2019-01-11T20:42:46.507Z,-0.10
2019-01-11T20:45:17.039Z,-0.10
2019-01-11T20:47:46.031Z,-0.10
2019-01-11T20:50:17.514Z,-0.20
2019-01-11T20:52:46.822Z,-0.10
2019-01-11T20:55:34.460Z,-0.10
2019-01-11T20:58:03.475Z,0.00
2019-01-11T21:00:32.734Z,0.00
2019-01-11T21:03:01.717Z,0.00
2019-01-11T21:05:30.745Z,0.10
2019-01-11T21:07:59.739Z,0.10
2019-01-11T21:10:28.676Z,0.10
2019-01-11T21:12:57.666Z,0.10
2019-01-11T21:15:26.589Z,0.20
2019-01-11T21:17:55.693Z,0.10
2019-01-11T21:20:24.611Z,0.10
2019-01-11T21:22:53.704Z,0.10
2019-01-11T21:25:22.726Z,0.10
2019-01-11T21:27:51.718Z,0.10
2019-01-11T21:30:28.034Z,0.20
2019-01-11T21:32:57.025Z,0.10
2019-01-11T21:35:25.958Z,0.10
2019-01-11T21:37:55.076Z,0.20
2019-01-11T21:40:24.107Z,0.20
2019-01-11T21:42:53.234Z,0.10
2019-01-11T21:45:22.160Z,0.10
2019-01-11T21:47:51.161Z,0.10
2019-01-11T21:50:22.560Z,0.00
2019-01-11T21:52:51.651Z,0.10
2019-01-11T21:55:20.586Z,0.10
2019-01-11T21:57:49.575Z,0.10
2019-01-11T22:00:21.501Z,0.20
2019-01-11T22:02:50.597Z,0.10
2019-01-11T22:05:19.579Z,0.10
2019-01-11T22:07:49.133Z,0.10
2019-01-11T22:10:18.621Z,0.10
2019-01-11T22:12:51.373Z,0.10
2019-01-11T22:15:20.606Z,0.10
2019-01-11T22:17:49.540Z,0.20
2019-01-11T22:20:19.237Z,0.20
2019-01-11T22:22:48.154Z,0.20
2019-01-11T22:25:18.470Z,0.20
2019-01-11T22:27:47.403Z,0.30
2019-01-11T22:30:30.188Z,0.20
2019-01-11T22:32:56.454Z,0.20
2019-01-11T22:35:25.452Z,0.20
2019-01-11T22:37:54.380Z,0.20
2019-01-11T22:40:24.587Z,0.20
2019-01-11T22:42:57.655Z,0.20
2019-01-11T22:45:26.778Z,0.20
2019-01-11T22:47:55.702Z,0.20
2019-01-11T22:50:24.702Z,0.30
2019-01-11T22:52:53.725Z,0.30
2019-01-11T22:55:22.821Z,0.20
2019-01-11T22:57:51.864Z,0.30
2019-01-11T23:00:28.490Z,0.30
2019-01-11T23:02:59.224Z,0.30
2019-01-11T23:05:28.241Z,0.30
2019-01-11T23:07:57.964Z,0.30
2019-01-11T23:10:41.806Z,0.30
2019-01-11T23:13:10.854Z,0.30
2019-01-11T23:15:39.786Z,0.30
2019-01-11T23:18:08.814Z,0.30
2019-01-11T23:20:37.739Z,0.30
2019-01-11T23:23:06.751Z,0.30
2019-01-11T23:25:35.789Z,0.30
2019-01-11T23:28:04.894Z,0.40
2019-01-11T23:30:33.826Z,0.40
2019-01-11T23:33:02.939Z,0.40
2019-01-11T23:35:31.872Z,0.30
2019-01-11T23:38:00.871Z,0.40
2019-01-11T23:40:29.905Z,0.30
2019-01-11T23:42:58.904Z,0.40
2019-01-11T23:45:28.072Z,0.40
2019-01-11T23:47:57.078Z,0.40
2019-01-11T23:50:26.115Z,0.40
2019-01-11T23:52:55.105Z,0.40
2019-01-11T23:55:24.055Z,0.40
2019-01-11T23:57:53.058Z,0.40
